Bucks Bar, California
Current Conditions -  °F | °C
As of 12:55 AM on Friday 31 Oct 2014 (Local Time) from KPVF Reporting Station
Broken Clouds Broken Clouds  
Wind Chill: 55°   Ceiling: 4000
Heat Index: 55°   Visibility: 10mi
Dew Point: 43°   Wind: 0mph
Humidity: 63%   Direction: NA
Pressure: 29.94"   Gusts: NA
Location:  38.7308°N, 120.774°W
Report Text: KPVF 310755Z AUTO 00000KT 10SM FEW021 FEW031 BKN040 13/06 A2994 RMK AO1
Loading
Personal Weather Stations






























Interactive Weather Map
Tropical Storm Tracking
New forecast layout! Learn more

10-Day Weather Forecast

Advertisements
Track Severe Weather on mobile